Flight Track Log - Related Links

Times and Time Zones

All times are in EDT time to prevent confusion due to time zone crossing. See the UAL1129 flight status page for this flight to view local times or setup timezone preferences in your user account.

Time Position Orientation Groundspeed Altitude Reporting Facility
EDT Latitude Longitude Course Direction KTS MPH feet Rate Location/Type
Sun 10:10:54 PM 39.9167 -104.7000 255° West 201 231 6,500  Level Denver TRACON
Sun 10:11:54 PM 39.9667 -104.7333 333° Northwest 256 295 8,300 2,211 Climbing Denver TRACON
Sun 10:12:48 PM 40.0000 -104.8000 303° West 286 329 10,700 2,373 Climbing Denver TRACON
Sun 10:13:00 PM 39.7061 -105.1318 247° West  Level FlightAware Approximate
Sun 10:14:00 PM 39.6593 -105.2870 245° Southwest  Level FlightAware Approximate
Sun 10:14:08 PM 39.9578 -104.9308 247° West 308 354 13,600  Level Denver Center
Sun 10:15:00 PM 39.6044 -105.4379 245° Southwest  Level FlightAware Approximate
Sun 10:16:00 PM 39.5558 -105.5875 255° West  Level FlightAware Approximate
Sun 10:16:11 PM 39.8419 -105.1297 233° Southwest 342 394 17,800  Level Denver Center
Sun 10:17:13 PM 39.7761 -105.2247 228° Southwest 351 404 20,000 2,081 Climbing Denver Center
Sun 10:18:15 PM 39.7142 -105.3356 234° Southwest 351 404 22,100 1,500 Climbing Denver Center
Sun 10:19:17 PM 39.6536 -105.4414 233° Southwest 364 419 23,100 1,073 Climbing Denver Center
Sun 10:20:18 PM 39.6014 -105.5319 233° Southwest 364 419 24,300 1,366 Climbing Denver Center
Sun 10:21:20 PM 39.5361 -105.6703 239° Southwest 378 435 25,900 968 Climbing Denver Center
Sun 10:22:22 PM 39.4997 -105.8064 251° West 402 463 26,300 484 Climbing Denver Center
Sun 10:23:24 PM 39.4617 -105.9519 251° West 428 493 26,900 823 Climbing Denver Center
Sun 10:24:26 PM 39.4192 -106.1008 250° West 443 510 28,000 1,065 Climbing Denver Center
Sun 10:25:28 PM 39.3722 -106.2689 250° West 449 517 29,100 926 Climbing Denver Center
Sun 10:26:42 PM 39.3292 -106.4164 249° West 456 525 30,100 1,191 Climbing Denver Center
Sun 10:27:44 PM 39.2717 -106.6128 249° West 457 526 31,800 1,355 Climbing Denver Center
Sun 10:28:46 PM 39.2089 -106.7722 243° Southwest 449 517 32,900 968 Climbing Denver Center
Sun 10:29:48 PM 39.1322 -106.8942 231° Southwest 456 525 33,800 1,113 Climbing Denver Center
Sun 10:30:50 PM 39.0439 -107.0339 231° Southwest 451 519 35,200 1,065 Climbing Denver Center
Sun 10:31:52 PM 38.9694 -107.1489 230° Southwest 442 509 36,000 387 Climbing Denver Center
Sun 10:32:54 PM 38.8669 -107.2128 206° Southwest 429 494 36,000  Level Denver Center
Sun 10:33:56 PM 38.7433 -107.2761 202° Southwest 428 493 36,000  Level Denver Center
Sun 10:34:58 PM 38.6350 -107.3311 202° Southwest 433 498 36,000  Level Denver Center
Sun 10:36:00 PM 38.5092 -107.3967 202° Southwest 435 501 36,000  Level Denver Center
Sun 10:37:01 PM 38.4003 -107.4511 201° Southwest 439 505 36,000  Level Denver Center
Sun 10:38:03 PM 38.2733 -107.5142 201° Southwest 437 503 36,000  Level Denver Center
Sun 10:39:05 PM 38.1656 -107.5686 202° Southwest 436 502 36,000  Level Denver Center
Sun 10:40:07 PM 38.0556 -107.6239 202° Southwest 436 502 36,000  Level Denver Center
Sun 10:41:09 PM 37.9286 -107.6864 201° Southwest 437 503 36,000  Level Denver Center
Sun 10:42:11 PM 37.8206 -107.7417 202° Southwest 437 503 36,000  Level Denver Center
Sun 10:43:13 PM 37.6933 -107.8039 201° Southwest 439 505 36,000  Level Denver Center
Sun 10:44:15 PM 37.5839 -107.8594 202° Southwest 442 509 36,000  Level Denver Center
Sun 10:45:17 PM 37.4553 -107.9225 201° Southwest 441 507 36,000  Level Denver Center
Sun 10:46:19 PM 37.3447 -107.9756 201° Southwest 444 511 36,000  Level Denver Center
Sun 10:47:21 PM 37.2147 -108.0394 201° Southwest 450 518 36,000  Level Denver Center
Sun 10:48:23 PM 37.1042 -108.0939 201° Southwest 444 511 36,000  Level Denver Center
Sun 10:49:25 PM 36.9761 -108.1561 201° Southwest 442 509 36,000  Level Denver Center
Sun 10:50:27 PM 36.8656 -108.2097 201° Southwest 443 510 36,000  Level Denver Center
Sun 10:51:29 PM 36.7564 -108.2625 201° Southwest 439 505 36,000  Level Denver Center
Sun 10:52:31 PM 36.6283 -108.3250 201° Southwest 441 507 36,000  Level Denver Center
Sun 10:53:33 PM 36.5189 -108.3772 201° Southwest 440 506 36,000  Level Denver Center
Sun 10:54:34 PM 36.4272 -108.4217 201° Southwest 442 509 36,000  Level Denver Center
Sun 10:55:37 PM 36.2786 -108.4933 201° Southwest 446 513 36,000  Level Denver Center
Sun 10:56:51 PM 36.1483 -108.5547 201° Southwest 445 512 36,000  Level Denver Center
Sun 10:57:49 PM 36.0119 -108.6219 202° Southwest 449 517 36,000  Level Albuquerque Center
Sun 10:58:51 PM 35.9058 -108.6706 200° South 447 514 36,000  Level Albuquerque Center
Sun 10:59:52 PM 35.7772 -108.7311 201° Southwest 440 506 36,000  Level Albuquerque Center
Sun 11:00:54 PM 35.6683 -108.7839 201° Southwest 437 503 36,000  Level Albuquerque Center
Sun 11:01:55 PM 35.5586 -108.8344 201° Southwest 438 504 36,000  Level Albuquerque Center
Sun 11:02:56 PM 35.4347 -108.9017 204° Southwest 435 501 36,000  Level Albuquerque Center
Sun 11:03:58 PM 35.3250 -108.9533 201° Southwest 437 503 36,000  Level Albuquerque Center
Sun 11:04:59 PM 35.2153 -109.0044 201° Southwest 440 506 36,000  Level Albuquerque Center
Sun 11:06:00 PM 35.0842 -109.0647 201° Southwest 446 513 36,000  Level Albuquerque Center
Sun 11:07:02 PM 34.9764 -109.1297 206° Southwest 454 522 36,000  Level Albuquerque Center
Sun 11:08:03 PM 34.8614 -109.2250 214° Southwest 448 516 36,000  Level Albuquerque Center
Sun 11:09:05 PM 34.7778 -109.3267 225° Southwest 443 510 36,000  Level Albuquerque Center
Sun 11:10:06 PM 34.6972 -109.4361 228° Southwest 448 516 36,000  Level Albuquerque Center
Sun 11:11:08 PM 34.6153 -109.5736 234° Southwest 447 514 36,000  Level Albuquerque Center
Sun 11:12:09 PM 34.5736 -109.7119 250° West 451 519 36,000  Level Albuquerque Center
Sun 11:13:10 PM 34.5264 -109.8747 251° West 456 525 36,000  Level Albuquerque Center
Sun 11:14:12 PM 34.4819 -110.0136 249° West 460 529 36,000 -683 Level Albuquerque Center
Sun 11:15:13 PM 34.4369 -110.1536 249° West 463 533 34,600 -2,508 Descending Albuquerque Center
Sun 11:16:14 PM 34.3833 -110.3219 249° West 476 548 30,900 -2,976 Descending Albuquerque Center
Sun 11:17:16 PM 34.3394 -110.4583 249° West 478 550 28,500 -2,341 Descending Albuquerque Center
Sun 11:18:17 PM 34.2922 -110.6022 248° West 465 535 26,100 -2,311 Descending Albuquerque Center
Sun 11:19:18 PM 34.2472 -110.7408 249° West 449 517 23,800 -2,022 Descending Albuquerque Center
Sun 11:21:21 PM 34.1814 -111.0378 255° West 406 467 19,900 -1,630 Descending Albuquerque Center
Sun 11:22:22 PM 34.1756 -111.1564 267° West 363 418 18,800 -1,415 Descending Albuquerque Center
Sun 11:23:24 PM 34.1700 -111.2678 267° West 341 392 17,000 -1,805 Descending Albuquerque Center
Sun 11:24:25 PM 34.1631 -111.3772 266° West 331 381 15,100 -1,672 Descending Albuquerque Center
Sun 11:25:26 PM 34.0889 -111.4322 212° Southwest 315 362 13,600 -1,512 Descending Albuquerque Center
Sun 11:26:28 PM 34.0053 -111.4661 199° South 313 360 12,000 -1,220 Descending Albuquerque Center
Sun 11:27:29 PM 33.9269 -111.5050 202° Southwest 305 351 11,100 -984 Descending Albuquerque Center
Sun 11:28:30 PM 33.8567 -111.5617 214° Southwest 302 348 10,000 -585 Descending Albuquerque Center
Sun 11:29:32 PM 33.7828 -111.6083 208° Southwest 298 343 9,900 -683 Descending Albuquerque Center
Sun 11:30:33 PM 33.7064 -111.6439 201° Southwest 292 336 8,600 -984 Descending Albuquerque Center
Sun 11:31:34 PM 33.6325 -111.6786 201° Southwest 285 328 7,900 -1,024 Descending Albuquerque Center
Sun 11:32:36 PM 33.5694 -111.7081 201° Southwest 247 284 6,500 -1,317 Descending Albuquerque Center
Sun 11:33:37 PM 33.4956 -111.7447 202° Southwest 236 272 5,200 -1,279 Descending Albuquerque Center
Sun 11:34:38 PM 33.4647 -111.8033 238° Southwest 205 236 3,900 -1,082 Descending Albuquerque Center
Sun 11:35:39 PM 33.4422 -111.8586 244° Southwest 184 212 3,000 -785 Descending Albuquerque Center
Sun 11:36:25 PM 33.4333 -111.9000 256° West 160 184 2,500 -736 Descending Phoenix TRACON
Sun 11:37:25 PM 33.4333 -111.9500 270° West 154 177 1,700 -800 Descending Phoenix TRACON

Login

Don't have an account? Register now (free) for customized features, flight alerts, and more!